sensor_id;sensor_type;location;lat;lon;timestamp;temperature;humidity
70051;SHT30;57391;51.306;22.680;2022-09-20T00:01:26;9.55;84.04
70051;SHT30;57391;51.306;22.680;2022-09-20T00:03:59;9.57;84.09
70051;SHT30;57391;51.306;22.680;2022-09-20T00:06:30;9.61;84.17
70051;SHT30;57391;51.306;22.680;2022-09-20T00:08:58;9.64;84.16
70051;SHT30;57391;51.306;22.680;2022-09-20T00:11:27;9.65;84.13
70051;SHT30;57391;51.306;22.680;2022-09-20T00:13:59;9.67;84.18
70051;SHT30;57391;51.306;22.680;2022-09-20T00:16:31;9.69;84.18
70051;SHT30;57391;51.306;22.680;2022-09-20T00:19:02;9.72;84.18
70051;SHT30;57391;51.306;22.680;2022-09-20T00:21:31;9.73;84.17
70051;SHT30;57391;51.306;22.680;2022-09-20T00:24:01;9.74;84.21
70051;SHT30;57391;51.306;22.680;2022-09-20T00:26:29;9.76;84.21
70051;SHT30;57391;51.306;22.680;2022-09-20T00:28:56;9.77;84.14
70051;SHT30;57391;51.306;22.680;2022-09-20T00:31:24;9.79;84.12
70051;SHT30;57391;51.306;22.680;2022-09-20T00:33:53;9.81;84.10
70051;SHT30;57391;51.306;22.680;2022-09-20T00:36:40;9.82;84.08
70051;SHT30;57391;51.306;22.680;2022-09-20T00:39:09;9.84;84.03
70051;SHT30;57391;51.306;22.680;2022-09-20T00:41:39;9.86;84.01
70051;SHT30;57391;51.306;22.680;2022-09-20T00:47:36;9.90;83.97
70051;SHT30;57391;51.306;22.680;2022-09-20T00:52:51;9.93;83.90
70051;SHT30;57391;51.306;22.680;2022-09-20T00:55:25;9.95;83.90
70051;SHT30;57391;51.306;22.680;2022-09-20T00:57:54;9.96;83.90
70051;SHT30;57391;51.306;22.680;2022-09-20T01:00:21;9.98;83.90
70051;SHT30;57391;51.306;22.680;2022-09-20T01:02:51;9.99;83.88
70051;SHT30;57391;51.306;22.680;2022-09-20T01:05:25;10.00;83.80
70051;SHT30;57391;51.306;22.680;2022-09-20T01:07:53;10.02;83.80
70051;SHT30;57391;51.306;22.680;2022-09-20T01:10:22;10.04;83.83
70051;SHT30;57391;51.306;22.680;2022-09-20T01:12:49;10.03;83.85
70051;SHT30;57391;51.306;22.680;2022-09-20T01:15:19;10.05;83.87
70051;SHT30;57391;51.306;22.680;2022-09-20T01:17:50;10.06;83.88
70051;SHT30;57391;51.306;22.680;2022-09-20T01:20:22;10.07;83.89
70051;SHT30;57391;51.306;22.680;2022-09-20T01:28:37;10.11;84.15
70051;SHT30;57391;51.306;22.680;2022-09-20T01:31:09;10.12;84.20
70051;SHT30;57391;51.306;22.680;2022-09-20T01:36:36;10.11;84.25
70051;SHT30;57391;51.306;22.680;2022-09-20T01:41:57;10.15;84.40
70051;SHT30;57391;51.306;22.680;2022-09-20T01:59:43;10.20;84.66
70051;SHT30;57391;51.306;22.680;2022-09-20T02:22:08;10.26;84.90
70051;SHT30;57391;51.306;22.680;2022-09-20T02:28:30;10.30;85.17
70051;SHT30;57391;51.306;22.680;2022-09-20T02:36:47;10.33;85.19
70051;SHT30;57391;51.306;22.680;2022-09-20T02:39:34;10.34;85.30
70051;SHT30;57391;51.306;22.680;2022-09-20T02:42:12;10.36;85.30
70051;SHT30;57391;51.306;22.680;2022-09-20T02:47:39;10.38;85.29
70051;SHT30;57391;51.306;22.680;2022-09-20T02:53:36;10.40;85.22
70051;SHT30;57391;51.306;22.680;2022-09-20T02:56:33;10.40;85.27
70051;SHT30;57391;51.306;22.680;2022-09-20T02:59:21;10.41;85.40
70051;SHT30;57391;51.306;22.680;2022-09-20T03:02:21;10.42;85.40
70051;SHT30;57391;51.306;22.680;2022-09-20T03:10:52;10.47;85.40
70051;SHT30;57391;51.306;22.680;2022-09-20T03:16:37;10.50;85.50
70051;SHT30;57391;51.306;22.680;2022-09-20T03:19:42;10.49;85.50
70051;SHT30;57391;51.306;22.680;2022-09-20T03:23:09;10.52;85.50
70051;SHT30;57391;51.306;22.680;2022-09-20T03:26:13;10.53;85.51
70051;SHT30;57391;51.306;22.680;2022-09-20T03:32:00;10.56;85.60
70051;SHT30;57391;51.306;22.680;2022-09-20T03:35:15;10.56;85.62
70051;SHT30;57391;51.306;22.680;2022-09-20T03:37:55;10.57;85.62
70051;SHT30;57391;51.306;22.680;2022-09-20T03:46:29;10.60;85.61
70051;SHT30;57391;51.306;22.680;2022-09-20T04:01:39;10.64;85.52
70051;SHT30;57391;51.306;22.680;2022-09-20T04:07:26;10.65;85.50
70051;SHT30;57391;51.306;22.680;2022-09-20T04:16:00;10.68;85.51
70051;SHT30;57391;51.306;22.680;2022-09-20T04:18:34;10.70;85.48
70051;SHT30;57391;51.306;22.680;2022-09-20T04:21:19;10.71;85.49
70051;SHT30;57391;51.306;22.680;2022-09-20T04:24:12;10.72;85.50
70051;SHT30;57391;51.306;22.680;2022-09-20T04:27:11;10.74;85.37
70051;SHT30;57391;51.306;22.680;2022-09-20T04:29:58;10.77;85.26
70051;SHT30;57391;51.306;22.680;2022-09-20T04:32:46;10.76;85.24
70051;SHT30;57391;51.306;22.680;2022-09-20T05:19:49;10.93;85.37
70051;SHT30;57391;51.306;22.680;2022-09-20T05:25:17;10.95;85.34
70051;SHT30;57391;51.306;22.680;2022-09-20T05:28:15;10.96;85.35
70051;SHT30;57391;51.306;22.680;2022-09-20T05:31:08;10.99;85.40
70051;SHT30;57391;51.306;22.680;2022-09-20T05:33:50;11.02;85.42
70051;SHT30;57391;51.306;22.680;2022-09-20T05:36:25;11.07;85.49
70051;SHT30;57391;51.306;22.680;2022-09-20T05:42:07;11.15;85.40
70051;SHT30;57391;51.306;22.680;2022-09-20T05:45:16;11.21;85.44
70051;SHT30;57391;51.306;22.680;2022-09-20T05:48:13;11.25;85.25
70051;SHT30;57391;51.306;22.680;2022-09-20T05:54:10;11.40;84.80
70051;SHT30;57391;51.306;22.680;2022-09-20T05:59:42;11.50;84.54
70051;SHT30;57391;51.306;22.680;2022-09-20T06:17:30;11.64;84.28
70051;SHT30;57391;51.306;22.680;2022-09-20T06:20:36;11.67;84.29
70051;SHT30;57391;51.306;22.680;2022-09-20T06:23:20;11.69;84.17
70051;SHT30;57391;51.306;22.680;2022-09-20T06:25:55;11.69;84.06
70051;SHT30;57391;51.306;22.680;2022-09-20T06:28:28;11.70;83.89
70051;SHT30;57391;51.306;22.680;2022-09-20T06:31:00;11.70;83.83
70051;SHT30;57391;51.306;22.680;2022-09-20T06:33:32;11.68;83.71
70051;SHT30;57391;51.306;22.680;2022-09-20T06:36:27;11.67;83.71
70051;SHT30;57391;51.306;22.680;2022-09-20T06:42:18;11.67;83.65
70051;SHT30;57391;51.306;22.680;2022-09-20T06:44:45;11.66;83.48
70051;SHT30;57391;51.306;22.680;2022-09-20T06:47:12;11.65;83.51
70051;SHT30;57391;51.306;22.680;2022-09-20T06:49:40;11.65;83.48
70051;SHT30;57391;51.306;22.680;2022-09-20T06:52:15;11.68;83.68
70051;SHT30;57391;51.306;22.680;2022-09-20T06:54:48;11.71;83.67
70051;SHT30;57391;51.306;22.680;2022-09-20T06:57:23;11.75;83.61
70051;SHT30;57391;51.306;22.680;2022-09-20T07:00:00;11.80;83.52
70051;SHT30;57391;51.306;22.680;2022-09-20T07:02:27;11.89;83.59
70051;SHT30;57391;51.306;22.680;2022-09-20T07:04:54;11.99;83.39
70051;SHT30;57391;51.306;22.680;2022-09-20T07:07:24;12.08;83.24
70051;SHT30;57391;51.306;22.680;2022-09-20T07:09:51;12.23;83.14
70051;SHT30;57391;51.306;22.680;2022-09-20T07:12:18;12.34;82.70
70051;SHT30;57391;51.306;22.680;2022-09-20T07:14:46;12.40;82.13
70051;SHT30;57391;51.306;22.680;2022-09-20T07:17:13;12.44;81.87
70051;SHT30;57391;51.306;22.680;2022-09-20T07:19:40;12.45;81.53
70051;SHT30;57391;51.306;22.680;2022-09-20T07:22:07;12.47;81.32
70051;SHT30;57391;51.306;22.680;2022-09-20T07:24:34;12.51;81.18
70051;SHT30;57391;51.306;22.680;2022-09-20T07:27:01;12.59;81.00
70051;SHT30;57391;51.306;22.680;2022-09-20T07:29:30;12.68;81.24
70051;SHT30;57391;51.306;22.680;2022-09-20T07:31:57;12.75;81.37
70051;SHT30;57391;51.306;22.680;2022-09-20T07:34:24;12.79;81.24
70051;SHT30;57391;51.306;22.680;2022-09-20T07:36:52;12.84;81.04
70051;SHT30;57391;51.306;22.680;2022-09-20T07:39:20;12.90;80.86
70051;SHT30;57391;51.306;22.680;2022-09-20T07:41:47;12.95;80.76
70051;SHT30;57391;51.306;22.680;2022-09-20T07:44:16;12.97;80.56
70051;SHT30;57391;51.306;22.680;2022-09-20T07:46:53;13.02;80.48
70051;SHT30;57391;51.306;22.680;2022-09-20T07:49:26;13.04;80.23
70051;SHT30;57391;51.306;22.680;2022-09-20T07:51:57;13.03;79.98
70051;SHT30;57391;51.306;22.680;2022-09-20T07:54:25;13.02;79.85
70051;SHT30;57391;51.306;22.680;2022-09-20T07:56:56;13.02;79.86
70051;SHT30;57391;51.306;22.680;2022-09-20T07:59:23;13.06;79.90
70051;SHT30;57391;51.306;22.680;2022-09-20T08:01:51;13.12;79.77
70051;SHT30;57391;51.306;22.680;2022-09-20T08:04:18;13.16;79.65
70051;SHT30;57391;51.306;22.680;2022-09-20T08:06:45;13.18;79.28
70051;SHT30;57391;51.306;22.680;2022-09-20T08:09:12;13.19;78.70
70051;SHT30;57391;51.306;22.680;2022-09-20T08:11:40;13.23;78.94
70051;SHT30;57391;51.306;22.680;2022-09-20T08:14:11;13.29;79.16
70051;SHT30;57391;51.306;22.680;2022-09-20T08:16:42;13.35;79.39
70051;SHT30;57391;51.306;22.680;2022-09-20T08:19:17;13.41;78.91
70051;SHT30;57391;51.306;22.680;2022-09-20T08:21:48;13.45;78.70
70051;SHT30;57391;51.306;22.680;2022-09-20T08:24:18;13.50;78.80
70051;SHT30;57391;51.306;22.680;2022-09-20T08:26:46;13.55;78.38
70051;SHT30;57391;51.306;22.680;2022-09-20T08:29:13;13.62;78.36
70051;SHT30;57391;51.306;22.680;2022-09-20T08:31:40;13.64;77.96
70051;SHT30;57391;51.306;22.680;2022-09-20T08:34:09;13.70;77.91
70051;SHT30;57391;51.306;22.680;2022-09-20T08:36:41;13.70;77.57
70051;SHT30;57391;51.306;22.680;2022-09-20T08:39:12;13.72;77.69
70051;SHT30;57391;51.306;22.680;2022-09-20T08:41:47;13.69;77.61
70051;SHT30;57391;51.306;22.680;2022-09-20T08:45:00;13.65;77.55
70051;SHT30;57391;51.306;22.680;2022-09-20T08:47:35;13.61;77.70
70051;SHT30;57391;51.306;22.680;2022-09-20T08:50:14;13.55;77.38
70051;SHT30;57391;51.306;22.680;2022-09-20T08:52:43;13.49;77.52
70051;SHT30;57391;51.306;22.680;2022-09-20T08:55:18;13.41;77.46
70051;SHT30;57391;51.306;22.680;2022-09-20T08:57:50;13.37;77.81
70051;SHT30;57391;51.306;22.680;2022-09-20T09:00:22;13.36;77.96
70051;SHT30;57391;51.306;22.680;2022-09-20T09:03:11;13.34;77.91
70051;SHT30;57391;51.306;22.680;2022-09-20T09:05:49;13.32;78.03
70051;SHT30;57391;51.306;22.680;2022-09-20T09:08:26;13.30;78.05
70051;SHT30;57391;51.306;22.680;2022-09-20T09:10:56;13.27;78.02
70051;SHT30;57391;51.306;22.680;2022-09-20T09:16:27;13.23;78.54
70051;SHT30;57391;51.306;22.680;2022-09-20T09:19:11;13.20;78.46
70051;SHT30;57391;51.306;22.680;2022-09-20T09:22:01;13.14;78.01
70051;SHT30;57391;51.306;22.680;2022-09-20T09:24:32;13.07;78.14
70051;SHT30;57391;51.306;22.680;2022-09-20T09:27:06;13.04;78.34
70051;SHT30;57391;51.306;22.680;2022-09-20T09:29:48;13.03;78.57
70051;SHT30;57391;51.306;22.680;2022-09-20T09:34:54;13.25;78.51
70051;SHT30;57391;51.306;22.680;2022-09-20T09:37:51;13.43;77.51
70051;SHT30;57391;51.306;22.680;2022-09-20T09:40:25;13.56;77.04
70051;SHT30;57391;51.306;22.680;2022-09-20T09:42:58;13.76;76.43
70051;SHT30;57391;51.306;22.680;2022-09-20T09:45:29;13.94;75.89
70051;SHT30;57391;51.306;22.680;2022-09-20T09:51:07;14.34;75.48
70051;SHT30;57391;51.306;22.680;2022-09-20T09:53:45;14.70;74.70
70051;SHT30;57391;51.306;22.680;2022-09-20T10:04:46;14.60;72.93
70051;SHT30;57391;51.306;22.680;2022-09-20T10:07:39;14.57;72.73
70051;SHT30;57391;51.306;22.680;2022-09-20T10:14:14;14.48;72.54
70051;SHT30;57391;51.306;22.680;2022-09-20T10:22:52;14.83;71.91
70051;SHT30;57391;51.306;22.680;2022-09-20T10:36:56;15.06;69.51
70051;SHT30;57391;51.306;22.680;2022-09-20T10:45:28;15.14;69.58
70051;SHT30;57391;51.306;22.680;2022-09-20T10:50:58;15.15;69.06
70051;SHT30;57391;51.306;22.680;2022-09-20T11:08:41;15.00;69.28
70051;SHT30;57391;51.306;22.680;2022-09-20T11:11:20;14.98;69.03
70051;SHT30;57391;51.306;22.680;2022-09-20T11:16:34;14.80;68.50
70051;SHT30;57391;51.306;22.680;2022-09-20T11:22:23;14.70;69.47
70051;SHT30;57391;51.306;22.680;2022-09-20T11:25:13;14.67;69.60
70051;SHT30;57391;51.306;22.680;2022-09-20T11:27:54;14.68;69.93
70051;SHT30;57391;51.306;22.680;2022-09-20T11:30:59;14.82;69.98
70051;SHT30;57391;51.306;22.680;2022-09-20T11:33:32;14.94;69.78
70051;SHT30;57391;51.306;22.680;2022-09-20T11:36:36;14.95;68.93
70051;SHT30;57391;51.306;22.680;2022-09-20T11:42:02;14.59;70.40
70051;SHT30;57391;51.306;22.680;2022-09-20T11:44:31;14.45;70.99
70051;SHT30;57391;51.306;22.680;2022-09-20T11:58:57;14.10;72.09
70051;SHT30;57391;51.306;22.680;2022-09-20T12:06:44;14.14;72.23
70051;SHT30;57391;51.306;22.680;2022-09-20T12:09:26;14.21;72.28
70051;SHT30;57391;51.306;22.680;2022-09-20T12:12:12;14.30;71.54
70051;SHT30;57391;51.306;22.680;2022-09-20T12:14:56;14.34;71.57
70051;SHT30;57391;51.306;22.680;2022-09-20T12:26:08;14.21;71.98
70051;SHT30;57391;51.306;22.680;2022-09-20T12:28:49;14.23;71.62
70051;SHT30;57391;51.306;22.680;2022-09-20T12:36:29;14.32;70.27
70051;SHT30;57391;51.306;22.680;2022-09-20T12:49:59;14.93;69.75
70051;SHT30;57391;51.306;22.680;2022-09-20T12:52:49;14.93;69.56
70051;SHT30;57391;51.306;22.680;2022-09-20T12:55:37;14.81;67.36
70051;SHT30;57391;51.306;22.680;2022-09-20T12:58:30;14.58;67.66
70051;SHT30;57391;51.306;22.680;2022-09-20T13:03:50;14.21;68.95
70051;SHT30;57391;51.306;22.680;2022-09-20T13:16:55;13.67;75.11
70051;SHT30;57391;51.306;22.680;2022-09-20T13:19:50;13.76;76.54
70051;SHT30;57391;51.306;22.680;2022-09-20T13:24:52;14.17;77.70
70051;SHT30;57391;51.306;22.680;2022-09-20T13:27:32;14.35;77.62
70051;SHT30;57391;51.306;22.680;2022-09-20T13:32:50;14.55;76.20
70051;SHT30;57391;51.306;22.680;2022-09-20T13:35:22;14.57;76.28
70051;SHT30;57391;51.306;22.680;2022-09-20T13:38:01;14.50;74.64
70051;SHT30;57391;51.306;22.680;2022-09-20T13:40:33;14.38;74.52
70051;SHT30;57391;51.306;22.680;2022-09-20T13:46:05;14.21;74.77
70051;SHT30;57391;51.306;22.680;2022-09-20T13:48:57;14.12;75.02
70051;SHT30;57391;51.306;22.680;2022-09-20T13:51:49;14.03;75.15
70051;SHT30;57391;51.306;22.680;2022-09-20T13:54:24;13.96;75.30
70051;SHT30;57391;51.306;22.680;2022-09-20T13:56:59;13.92;75.58
70051;SHT30;57391;51.306;22.680;2022-09-20T13:59:32;13.88;75.63
70051;SHT30;57391;51.306;22.680;2022-09-20T14:02:11;13.84;75.42
70051;SHT30;57391;51.306;22.680;2022-09-20T14:04:52;13.80;75.23
70051;SHT30;57391;51.306;22.680;2022-09-20T14:07:22;13.75;75.29
70051;SHT30;57391;51.306;22.680;2022-09-20T14:09:54;13.72;75.29
70051;SHT30;57391;51.306;22.680;2022-09-20T14:12:24;13.67;75.37
70051;SHT30;57391;51.306;22.680;2022-09-20T14:14:52;13.65;75.58
70051;SHT30;57391;51.306;22.680;2022-09-20T14:17:21;13.63;75.54
70051;SHT30;57391;51.306;22.680;2022-09-20T14:19:51;13.63;75.24
70051;SHT30;57391;51.306;22.680;2022-09-20T14:22:27;13.63;75.49
70051;SHT30;57391;51.306;22.680;2022-09-20T14:24:56;13.65;75.68
70051;SHT30;57391;51.306;22.680;2022-09-20T14:27:47;13.72;75.63
70051;SHT30;57391;51.306;22.680;2022-09-20T14:30:34;13.77;76.09
70051;SHT30;57391;51.306;22.680;2022-09-20T14:33:02;13.89;76.13
70051;SHT30;57391;51.306;22.680;2022-09-20T14:35:32;13.98;76.11
70051;SHT30;57391;51.306;22.680;2022-09-20T14:38:01;14.09;76.39
70051;SHT30;57391;51.306;22.680;2022-09-20T14:40:45;14.19;75.96
70051;SHT30;57391;51.306;22.680;2022-09-20T14:43:32;14.27;75.77
70051;SHT30;57391;51.306;22.680;2022-09-20T14:46:35;14.37;75.65
70051;SHT30;57391;51.306;22.680;2022-09-20T14:51:52;14.57;74.87
70051;SHT30;57391;51.306;22.680;2022-09-20T14:54:40;14.66;74.68
70051;SHT30;57391;51.306;22.680;2022-09-20T14:57:07;14.68;74.18
70051;SHT30;57391;51.306;22.680;2022-09-20T14:59:41;14.72;74.14
70051;SHT30;57391;51.306;22.680;2022-09-20T15:04:50;14.73;74.07
70051;SHT30;57391;51.306;22.680;2022-09-20T15:07:21;14.71;74.34
70051;SHT30;57391;51.306;22.680;2022-09-20T15:09:48;14.67;74.31
70051;SHT30;57391;51.306;22.680;2022-09-20T15:12:17;14.65;74.35
70051;SHT30;57391;51.306;22.680;2022-09-20T15:14:46;14.62;74.11
70051;SHT30;57391;51.306;22.680;2022-09-20T15:17:17;14.59;74.24
70051;SHT30;57391;51.306;22.680;2022-09-20T15:19:47;14.55;74.22
70051;SHT30;57391;51.306;22.680;2022-09-20T15:22:15;14.52;74.32
70051;SHT30;57391;51.306;22.680;2022-09-20T15:25:04;14.49;74.37
70051;SHT30;57391;51.306;22.680;2022-09-20T15:27:31;14.49;74.49
70051;SHT30;57391;51.306;22.680;2022-09-20T15:29:59;14.47;74.50
70051;SHT30;57391;51.306;22.680;2022-09-20T15:32:25;14.47;74.54
70051;SHT30;57391;51.306;22.680;2022-09-20T15:34:52;14.47;74.57
70051;SHT30;57391;51.306;22.680;2022-09-20T15:37:19;14.48;74.73
70051;SHT30;57391;51.306;22.680;2022-09-20T15:39:46;14.47;74.77
70051;SHT30;57391;51.306;22.680;2022-09-20T15:42:13;14.44;74.74
70051;SHT30;57391;51.306;22.680;2022-09-20T15:44:40;14.41;74.66
70051;SHT30;57391;51.306;22.680;2022-09-20T15:47:07;14.39;74.62
70051;SHT30;57391;51.306;22.680;2022-09-20T15:49:34;14.37;74.31
70051;SHT30;57391;51.306;22.680;2022-09-20T15:52:01;14.33;74.47
70051;SHT30;57391;51.306;22.680;2022-09-20T15:54:28;14.31;74.41
70051;SHT30;57391;51.306;22.680;2022-09-20T15:56:55;14.31;74.32
70051;SHT30;57391;51.306;22.680;2022-09-20T15:59:26;14.28;74.10
70051;SHT30;57391;51.306;22.680;2022-09-20T16:01:55;14.24;73.96
70051;SHT30;57391;51.306;22.680;2022-09-20T16:04:23;14.20;73.99
70051;SHT30;57391;51.306;22.680;2022-09-20T16:06:52;14.16;74.09
70051;SHT30;57391;51.306;22.680;2022-09-20T16:09:19;14.14;74.21
70051;SHT30;57391;51.306;22.680;2022-09-20T16:11:47;14.10;74.03
70051;SHT30;57391;51.306;22.680;2022-09-20T16:14:15;14.07;73.87
70051;SHT30;57391;51.306;22.680;2022-09-20T16:16:43;14.01;74.06
70051;SHT30;57391;51.306;22.680;2022-09-20T16:19:10;13.97;74.29
70051;SHT30;57391;51.306;22.680;2022-09-20T16:21:46;13.93;74.50
70051;SHT30;57391;51.306;22.680;2022-09-20T16:24:22;13.88;74.60
70051;SHT30;57391;51.306;22.680;2022-09-20T16:26:52;13.84;74.44
70051;SHT30;57391;51.306;22.680;2022-09-20T16:29:20;13.81;74.45
70051;SHT30;57391;51.306;22.680;2022-09-20T16:31:48;13.78;74.51
70051;SHT30;57391;51.306;22.680;2022-09-20T16:34:21;13.76;74.62
70051;SHT30;57391;51.306;22.680;2022-09-20T16:39:31;13.70;74.63
70051;SHT30;57391;51.306;22.680;2022-09-20T16:42:09;13.67;74.73
70051;SHT30;57391;51.306;22.680;2022-09-20T16:44:39;13.63;74.81
70051;SHT30;57391;51.306;22.680;2022-09-20T16:47:12;13.58;74.99
70051;SHT30;57391;51.306;22.680;2022-09-20T16:49:48;13.54;74.98
70051;SHT30;57391;51.306;22.680;2022-09-20T16:52:16;13.50;75.01
70051;SHT30;57391;51.306;22.680;2022-09-20T16:54:43;13.46;75.07
70051;SHT30;57391;51.306;22.680;2022-09-20T16:57:12;13.44;75.14
70051;SHT30;57391;51.306;22.680;2022-09-20T16:59:39;13.41;75.25
70051;SHT30;57391;51.306;22.680;2022-09-20T17:02:09;13.39;75.42
70051;SHT30;57391;51.306;22.680;2022-09-20T17:04:38;13.37;75.52
70051;SHT30;57391;51.306;22.680;2022-09-20T17:07:05;13.35;75.58
70051;SHT30;57391;51.306;22.680;2022-09-20T17:09:32;13.35;75.64
70051;SHT30;57391;51.306;22.680;2022-09-20T17:11:59;13.35;75.68
70051;SHT30;57391;51.306;22.680;2022-09-20T17:14:29;13.34;75.86
70051;SHT30;57391;51.306;22.680;2022-09-20T17:16:57;13.31;75.90
70051;SHT30;57391;51.306;22.680;2022-09-20T17:19:24;13.30;76.04
70051;SHT30;57391;51.306;22.680;2022-09-20T17:21:52;13.29;76.14
70051;SHT30;57391;51.306;22.680;2022-09-20T17:24:20;13.27;76.24
70051;SHT30;57391;51.306;22.680;2022-09-20T17:26:48;13.26;76.32
70051;SHT30;57391;51.306;22.680;2022-09-20T17:29:17;13.24;76.41
70051;SHT30;57391;51.306;22.680;2022-09-20T17:31:46;13.23;76.47
70051;SHT30;57391;51.306;22.680;2022-09-20T17:34:18;13.24;76.51
70051;SHT30;57391;51.306;22.680;2022-09-20T17:36:47;13.21;76.73
70051;SHT30;57391;51.306;22.680;2022-09-20T17:39:16;13.20;76.83
70051;SHT30;57391;51.306;22.680;2022-09-20T17:41:47;13.19;76.87
70051;SHT30;57391;51.306;22.680;2022-09-20T17:44:15;13.18;76.94
70051;SHT30;57391;51.306;22.680;2022-09-20T17:46:43;13.16;76.87
70051;SHT30;57391;51.306;22.680;2022-09-20T17:49:18;13.13;76.92
70051;SHT30;57391;51.306;22.680;2022-09-20T17:51:51;13.11;77.08
70051;SHT30;57391;51.306;22.680;2022-09-20T17:54:21;13.09;77.11
70051;SHT30;57391;51.306;22.680;2022-09-20T17:56:51;13.04;77.03
70051;SHT30;57391;51.306;22.680;2022-09-20T17:59:21;13.01;77.09
70051;SHT30;57391;51.306;22.680;2022-09-20T18:01:49;12.98;77.08
70051;SHT30;57391;51.306;22.680;2022-09-20T18:04:21;12.93;77.02
70051;SHT30;57391;51.306;22.680;2022-09-20T18:06:51;12.91;77.08
70051;SHT30;57391;51.306;22.680;2022-09-20T18:09:24;12.88;77.12
70051;SHT30;57391;51.306;22.680;2022-09-20T18:11:53;12.84;77.17
70051;SHT30;57391;51.306;22.680;2022-09-20T18:14:25;12.82;77.21
70051;SHT30;57391;51.306;22.680;2022-09-20T18:16:56;12.78;77.11
70051;SHT30;57391;51.306;22.680;2022-09-20T18:19:26;12.75;76.93
70051;SHT30;57391;51.306;22.680;2022-09-20T18:21:58;12.73;76.90
70051;SHT30;57391;51.306;22.680;2022-09-20T18:24:27;12.68;76.89
70051;SHT30;57391;51.306;22.680;2022-09-20T18:27:14;12.64;76.83
70051;SHT30;57391;51.306;22.680;2022-09-20T18:29:41;12.59;77.02
70051;SHT30;57391;51.306;22.680;2022-09-20T18:32:10;12.55;77.22
70051;SHT30;57391;51.306;22.680;2022-09-20T18:34:37;12.51;77.33
70051;SHT30;57391;51.306;22.680;2022-09-20T18:37:04;12.48;77.50
70051;SHT30;57391;51.306;22.680;2022-09-20T18:39:34;12.47;77.62
70051;SHT30;57391;51.306;22.680;2022-09-20T18:42:03;12.46;77.67
70051;SHT30;57391;51.306;22.680;2022-09-20T18:44:32;12.44;77.78
70051;SHT30;57391;51.306;22.680;2022-09-20T18:47:01;12.43;77.83
70051;SHT30;57391;51.306;22.680;2022-09-20T18:49:30;12.40;77.96
70051;SHT30;57391;51.306;22.680;2022-09-20T18:51:58;12.40;78.09
70051;SHT30;57391;51.306;22.680;2022-09-20T18:54:25;12.39;78.19
70051;SHT30;57391;51.306;22.680;2022-09-20T18:56:58;12.39;78.42
70051;SHT30;57391;51.306;22.680;2022-09-20T18:59:30;12.39;78.69
70051;SHT30;57391;51.306;22.680;2022-09-20T19:02:07;12.39;79.04
70051;SHT30;57391;51.306;22.680;2022-09-20T19:10:39;12.38;79.53
70051;SHT30;57391;51.306;22.680;2022-09-20T19:13:21;12.37;79.56
70051;SHT30;57391;51.306;22.680;2022-09-20T19:16:20;12.34;79.60
70051;SHT30;57391;51.306;22.680;2022-09-20T19:27:29;12.21;79.99
70051;SHT30;57391;51.306;22.680;2022-09-20T19:29:57;12.19;80.05
70051;SHT30;57391;51.306;22.680;2022-09-20T19:32:24;12.15;80.09
70051;SHT30;57391;51.306;22.680;2022-09-20T19:34:53;12.12;80.24
70051;SHT30;57391;51.306;22.680;2022-09-20T19:37:32;12.08;80.33
70051;SHT30;57391;51.306;22.680;2022-09-20T19:52:24;11.90;80.50
70051;SHT30;57391;51.306;22.680;2022-09-20T19:54:51;11.86;80.55
70051;SHT30;57391;51.306;22.680;2022-09-20T19:57:22;11.84;80.56
70051;SHT30;57391;51.306;22.680;2022-09-20T20:00:05;11.81;80.68
70051;SHT30;57391;51.306;22.680;2022-09-20T20:02:41;11.78;80.78
70051;SHT30;57391;51.306;22.680;2022-09-20T20:05:10;11.75;80.84
70051;SHT30;57391;51.306;22.680;2022-09-20T20:11:11;11.72;81.00
70051;SHT30;57391;51.306;22.680;2022-09-20T20:26:05;11.51;81.20
70051;SHT30;57391;51.306;22.680;2022-09-20T20:28:50;11.48;81.22
70051;SHT30;57391;51.306;22.680;2022-09-20T20:31:18;11.46;81.19
70051;SHT30;57391;51.306;22.680;2022-09-20T20:33:47;11.44;81.24
70051;SHT30;57391;51.306;22.680;2022-09-20T20:36:18;11.44;81.32
70051;SHT30;57391;51.306;22.680;2022-09-20T20:38:45;11.43;81.40
70051;SHT30;57391;51.306;22.680;2022-09-20T20:41:16;11.41;81.51
70051;SHT30;57391;51.306;22.680;2022-09-20T20:43:47;11.38;81.45
70051;SHT30;57391;51.306;22.680;2022-09-20T20:46:22;11.37;81.50
70051;SHT30;57391;51.306;22.680;2022-09-20T20:48:51;11.36;81.56
70051;SHT30;57391;51.306;22.680;2022-09-20T20:51:19;11.37;81.57
70051;SHT30;57391;51.306;22.680;2022-09-20T20:53:51;11.36;81.55
70051;SHT30;57391;51.306;22.680;2022-09-20T20:56:21;11.34;81.40
70051;SHT30;57391;51.306;22.680;2022-09-20T20:58:52;11.33;81.38
70051;SHT30;57391;51.306;22.680;2022-09-20T21:01:21;11.33;81.40
70051;SHT30;57391;51.306;22.680;2022-09-20T21:03:55;11.32;81.33
70051;SHT30;57391;51.306;22.680;2022-09-20T21:06:25;11.30;81.26
70051;SHT30;57391;51.306;22.680;2022-09-20T21:08:57;11.29;81.34
70051;SHT30;57391;51.306;22.680;2022-09-20T21:11:25;11.27;81.37
70051;SHT30;57391;51.306;22.680;2022-09-20T21:13:56;11.27;81.29
70051;SHT30;57391;51.306;22.680;2022-09-20T21:16:26;11.25;81.23
70051;SHT30;57391;51.306;22.680;2022-09-20T21:19:05;11.24;81.31
70051;SHT30;57391;51.306;22.680;2022-09-20T21:21:36;11.23;81.36
70051;SHT30;57391;51.306;22.680;2022-09-20T21:24:06;11.23;81.34
70051;SHT30;57391;51.306;22.680;2022-09-20T21:26:35;11.22;81.35
70051;SHT30;57391;51.306;22.680;2022-09-20T21:29:08;11.20;81.29
70051;SHT30;57391;51.306;22.680;2022-09-20T21:31:38;11.18;81.32
70051;SHT30;57391;51.306;22.680;2022-09-20T21:34:08;11.17;81.38
70051;SHT30;57391;51.306;22.680;2022-09-20T21:36:37;11.16;81.39
70051;SHT30;57391;51.306;22.680;2022-09-20T21:39:09;11.15;81.38
70051;SHT30;57391;51.306;22.680;2022-09-20T21:41:37;11.13;81.30
70051;SHT30;57391;51.306;22.680;2022-09-20T21:44:06;11.11;81.37
70051;SHT30;57391;51.306;22.680;2022-09-20T21:46:38;11.11;81.40
70051;SHT30;57391;51.306;22.680;2022-09-20T21:49:08;11.09;81.43
70051;SHT30;57391;51.306;22.680;2022-09-20T21:51:37;11.07;81.54
70051;SHT30;57391;51.306;22.680;2022-09-20T21:54:07;11.05;81.53
70051;SHT30;57391;51.306;22.680;2022-09-20T21:56:35;11.04;81.60
70051;SHT30;57391;51.306;22.680;2022-09-20T21:59:05;11.02;81.67
70051;SHT30;57391;51.306;22.680;2022-09-20T22:01:34;11.00;81.71
70051;SHT30;57391;51.306;22.680;2022-09-20T22:04:07;10.98;81.75
70051;SHT30;57391;51.306;22.680;2022-09-20T22:06:37;10.97;81.80
70051;SHT30;57391;51.306;22.680;2022-09-20T22:09:10;10.96;81.85